Weather at Aspen-Pitkin County Airport (Sardy Field)

Public forecast

Using degrees Fahrenheit for public forecast. Weather courtesy of forecast.io.

Current aviation weather report (METAR) for Aspen-Pitkin County Airport (Sardy Field)

Report is more than 2 hours old.

2024/06/24 20:53 (retrieved 2 hours ago)

KASE 242053Z VRB04KT 10SM CLR 26/02 A3028 RMK AO2 SLP124 T02610022 58013

Aviation forecast (TAF) for Aspen-Pitkin County Airport (Sardy Field)

2024/06/24 18:22 (retrieved 5 hours ago)

TAF KASE 241720Z 2418/2518 01007KT P6SM FEW250 FM242000 34007G16KT P6SM VCTS BKN090CB FM250200 16008KT P6SM FEW090 FM250600 20006KT P6SM FEW090 FM251400 36003KT P6SM FEW250